createdAt,value
2019-05-22T00:00:09.317Z,0
2019-05-22T00:01:11.793Z,0
2019-05-22T00:02:13.889Z,0
2019-05-22T00:03:16.252Z,0
2019-05-22T00:04:18.624Z,0
2019-05-22T00:05:21.141Z,0
2019-05-22T00:06:23.238Z,0
2019-05-22T00:07:25.691Z,0
2019-05-22T00:08:27.783Z,0
2019-05-22T00:09:29.823Z,0
2019-05-22T00:10:32.607Z,0
2019-05-22T00:11:34.674Z,0
2019-05-22T00:12:46.004Z,0
2019-05-22T00:13:49.293Z,0
2019-05-22T00:14:51.456Z,0
2019-05-22T00:15:54.261Z,0
2019-05-22T00:16:56.354Z,0
2019-05-22T00:17:58.525Z,0
2019-05-22T00:19:00.615Z,0
2019-05-22T00:20:02.796Z,0
2019-05-22T00:21:05.171Z,0
2019-05-22T00:22:07.540Z,0
2019-05-22T00:23:09.672Z,0
2019-05-22T00:24:12.057Z,0
2019-05-22T00:25:14.195Z,0
2019-05-22T00:26:16.238Z,0
2019-05-22T00:27:18.385Z,0
2019-05-22T00:28:20.726Z,0
2019-05-22T00:29:22.821Z,0
2019-05-22T00:30:24.955Z,0
2019-05-22T00:31:27.036Z,0
2019-05-22T00:32:29.183Z,0
2019-05-22T00:33:31.660Z,0
2019-05-22T00:34:37.706Z,0
2019-05-22T00:35:40.137Z,0
2019-05-22T00:36:42.530Z,0
2019-05-22T00:37:44.602Z,0
2019-05-22T00:38:46.636Z,0
2019-05-22T00:39:48.794Z,0
2019-05-22T00:40:50.911Z,0
2019-05-22T00:41:54.243Z,0
2019-05-22T00:43:03.965Z,0
2019-05-22T00:44:16.103Z,0
2019-05-22T00:45:18.596Z,0
2019-05-22T00:46:21.094Z,0
2019-05-22T00:47:23.818Z,0
2019-05-22T00:48:26.207Z,0
2019-05-22T00:49:28.308Z,0
2019-05-22T00:50:30.870Z,0
2019-05-22T00:51:32.956Z,0
2019-05-22T00:52:35.055Z,0
2019-05-22T00:53:37.113Z,0
2019-05-22T00:54:39.491Z,0
2019-05-22T00:55:42.012Z,0
2019-05-22T00:56:44.101Z,0
2019-05-22T00:57:46.169Z,0
2019-05-22T00:58:48.303Z,0
2019-05-22T00:59:50.387Z,0
2019-05-22T01:00:52.513Z,0
2019-05-22T01:01:54.626Z,0
2019-05-22T01:02:56.657Z,0
2019-05-22T01:03:58.818Z,0
2019-05-22T01:05:01.296Z,0
2019-05-22T01:06:04.450Z,0
2019-05-22T01:07:06.952Z,0
2019-05-22T01:08:09.074Z,0
2019-05-22T01:09:11.904Z,0
2019-05-22T01:10:13.995Z,0
2019-05-22T01:11:16.543Z,0
2019-05-22T01:12:18.618Z,0
2019-05-22T01:13:21.085Z,0
2019-05-22T01:14:23.628Z,0
2019-05-22T01:15:26.383Z,0
2019-05-22T01:16:28.515Z,0
2019-05-22T01:17:30.628Z,0
2019-05-22T01:18:33.407Z,0
2019-05-22T01:19:35.507Z,0
2019-05-22T01:20:37.602Z,0
2019-05-22T01:21:39.753Z,0
2019-05-22T01:22:42.109Z,0
2019-05-22T01:23:48.527Z,0
2019-05-22T01:24:50.907Z,0
2019-05-22T01:25:53.758Z,0
2019-05-22T01:26:56.473Z,0
2019-05-22T01:27:59.156Z,0
2019-05-22T01:29:02.047Z,0
2019-05-22T01:30:04.870Z,0
2019-05-22T01:31:07.435Z,0
2019-05-22T01:32:09.518Z,0
2019-05-22T01:33:11.603Z,0
2019-05-22T01:34:13.728Z,0
2019-05-22T01:35:16.163Z,0
2019-05-22T01:36:18.286Z,0
2019-05-22T01:37:20.374Z,0
2019-05-22T01:38:22.515Z,0
2019-05-22T01:39:25.633Z,0
2019-05-22T01:40:27.712Z,0
2019-05-22T01:41:29.852Z,0
2019-05-22T01:42:31.951Z,0
2019-05-22T01:43:34.028Z,0
2019-05-22T01:44:36.126Z,0
2019-05-22T01:45:38.492Z,0
2019-05-22T01:46:40.645Z,0
2019-05-22T01:47:43.031Z,0
2019-05-22T01:48:45.201Z,0
2019-05-22T01:49:47.305Z,0
2019-05-22T01:50:49.733Z,0
2019-05-22T01:51:52.127Z,0
2019-05-22T01:52:54.220Z,0
2019-05-22T01:53:56.364Z,0
2019-05-22T01:54:58.459Z,0
2019-05-22T01:56:00.523Z,0
2019-05-22T01:57:02.738Z,0
2019-05-22T01:58:04.829Z,0
2019-05-22T01:59:07.003Z,0
2019-05-22T02:00:09.513Z,0
2019-05-22T02:01:11.864Z,0
2019-05-22T02:02:14.828Z,0
2019-05-22T02:03:16.986Z,0
2019-05-22T02:04:19.153Z,0
2019-05-22T02:05:21.233Z,0
2019-05-22T02:06:23.398Z,0
2019-05-22T02:07:25.908Z,0
2019-05-22T02:08:28.287Z,0
2019-05-22T02:09:30.435Z,0
2019-05-22T02:10:33.431Z,0
2019-05-22T02:11:35.551Z,0
2019-05-22T02:12:37.638Z,0
2019-05-22T02:13:39.723Z,0
2019-05-22T02:14:41.891Z,0
2019-05-22T02:15:44.261Z,0
2019-05-22T02:16:55.885Z,0
2019-05-22T02:17:59.806Z,0
2019-05-22T02:19:01.955Z,0
2019-05-22T02:20:04.737Z,0
2019-05-22T02:21:10.703Z,0
2019-05-22T02:22:12.853Z,0
2019-05-22T02:23:14.939Z,0
2019-05-22T02:24:17.059Z,0
2019-05-22T02:25:19.935Z,0
2019-05-22T02:26:22.066Z,0
2019-05-22T02:27:24.147Z,0
2019-05-22T02:28:26.530Z,0
2019-05-22T02:29:28.687Z,0
2019-05-22T02:30:30.787Z,0
2019-05-22T02:31:33.206Z,0
2019-05-22T02:32:35.333Z,0
2019-05-22T02:33:37.785Z,0
2019-05-22T02:34:39.975Z,4
2019-05-22T02:35:42.456Z,4
2019-05-22T02:36:45.316Z,4
2019-05-22T02:37:47.724Z,0
2019-05-22T02:38:49.867Z,0
2019-05-22T02:39:52.234Z,4
2019-05-22T02:40:54.337Z,4
2019-05-22T02:41:56.803Z,4
2019-05-22T02:42:58.896Z,4
2019-05-22T02:44:01.731Z,8
2019-05-22T02:45:04.100Z,4
2019-05-22T02:46:06.615Z,8
2019-05-22T02:47:18.644Z,8
2019-05-22T02:48:23.783Z,8
2019-05-22T02:49:26.226Z,12
2019-05-22T02:50:28.311Z,12
2019-05-22T02:51:31.397Z,16
2019-05-22T02:52:33.789Z,16
2019-05-22T02:53:36.187Z,20
2019-05-22T02:54:38.274Z,20
2019-05-22T02:55:40.677Z,20
2019-05-22T02:56:43.148Z,24
2019-05-22T02:57:45.948Z,28
2019-05-22T02:58:48.162Z,28
2019-05-22T02:59:50.240Z,36
2019-05-22T03:00:52.903Z,36
2019-05-22T03:01:55.305Z,36
2019-05-22T03:02:57.694Z,40
2019-05-22T03:04:00.110Z,40
2019-05-22T03:05:02.326Z,44
2019-05-22T03:06:05.398Z,48
2019-05-22T03:07:07.794Z,48
2019-05-22T03:08:09.897Z,52
2019-05-22T03:09:12.658Z,60
2019-05-22T03:10:15.050Z,56
2019-05-22T03:11:18.157Z,68
2019-05-22T03:12:20.648Z,68
2019-05-22T03:13:23.431Z,68
2019-05-22T03:14:25.864Z,76
2019-05-22T03:15:28.609Z,84
2019-05-22T03:16:31.681Z,84
2019-05-22T03:17:34.163Z,88
2019-05-22T03:18:36.609Z,88
2019-05-22T03:19:38.977Z,96
2019-05-22T03:20:41.362Z,112
2019-05-22T03:21:43.521Z,116
2019-05-22T03:22:45.612Z,128
2019-05-22T03:23:47.716Z,128
2019-05-22T03:24:50.066Z,132
2019-05-22T03:25:52.435Z,136
2019-05-22T03:26:55.938Z,136
2019-05-22T03:27:58.110Z,148
2019-05-22T03:29:00.216Z,148
2019-05-22T03:30:02.615Z,160
2019-05-22T03:31:05.341Z,152
2019-05-22T03:32:08.149Z,148
2019-05-22T03:33:10.629Z,164
2019-05-22T03:34:12.797Z,160
2019-05-22T03:35:14.908Z,160
2019-05-22T03:36:17.295Z,148
2019-05-22T03:37:19.703Z,160
2019-05-22T03:38:22.326Z,180
2019-05-22T03:39:24.886Z,176
2019-05-22T03:40:26.995Z,160
2019-05-22T03:41:30.503Z,168
2019-05-22T03:42:32.628Z,184
2019-05-22T03:43:35.291Z,204
2019-05-22T03:44:37.818Z,196
2019-05-22T03:45:40.581Z,196
2019-05-22T03:46:42.677Z,224
2019-05-22T03:47:44.734Z,220
2019-05-22T03:48:47.201Z,204
2019-05-22T03:49:49.601Z,204
2019-05-22T03:50:51.695Z,188
2019-05-22T03:51:54.082Z,208
2019-05-22T03:52:56.443Z,224
2019-05-22T03:53:59.195Z,280
2019-05-22T03:55:01.230Z,268
2019-05-22T03:56:03.692Z,264
2019-05-22T03:57:05.856Z,264
2019-05-22T03:58:08.634Z,284
2019-05-22T03:59:10.796Z,288
2019-05-22T04:00:13.594Z,372
2019-05-22T04:01:16.348Z,360
2019-05-22T04:02:18.499Z,396
2019-05-22T04:03:21.169Z,396
2019-05-22T04:04:23.273Z,376
2019-05-22T04:05:25.505Z,424
2019-05-22T04:06:28.172Z,480
2019-05-22T04:07:30.609Z,464
2019-05-22T04:08:33.407Z,484
2019-05-22T04:09:35.884Z,464
2019-05-22T04:10:41.104Z,580
2019-05-22T04:11:43.361Z,612
2019-05-22T04:12:46.129Z,596
2019-05-22T04:13:48.193Z,576
2019-05-22T04:14:50.315Z,600
2019-05-22T04:15:52.684Z,556
2019-05-22T04:16:54.836Z,592
2019-05-22T04:17:56.903Z,572
2019-05-22T04:18:58.993Z,596
2019-05-22T04:20:01.112Z,576
2019-05-22T04:21:03.785Z,584
2019-05-22T04:22:06.384Z,548
2019-05-22T04:23:08.482Z,556
2019-05-22T04:24:11.001Z,568
2019-05-22T04:25:13.099Z,604
2019-05-22T04:26:15.189Z,608
2019-05-22T04:27:17.278Z,596
2019-05-22T04:28:20.039Z,524
2019-05-22T04:29:22.796Z,520
2019-05-22T04:30:25.131Z,552
2019-05-22T04:31:27.312Z,492
2019-05-22T04:32:29.634Z,508
2019-05-22T04:33:31.709Z,600
2019-05-22T04:34:34.580Z,492
2019-05-22T04:35:36.674Z,532
2019-05-22T04:36:39.099Z,464
2019-05-22T04:37:41.488Z,476
2019-05-22T04:38:43.864Z,508
2019-05-22T04:39:46.702Z,528
2019-05-22T04:40:48.801Z,572
2019-05-22T04:41:52.061Z,516
2019-05-22T04:42:55.015Z,460
2019-05-22T04:43:57.775Z,440
2019-05-22T04:45:00.488Z,460
2019-05-22T04:46:02.890Z,464
2019-05-22T04:47:05.656Z,468
2019-05-22T04:48:07.744Z,484
2019-05-22T04:49:09.843Z,436
2019-05-22T04:50:12.264Z,556
2019-05-22T04:51:14.750Z,580
2019-05-22T04:52:17.598Z,616
2019-05-22T04:53:20.344Z,680
2019-05-22T04:54:23.059Z,740
2019-05-22T04:55:26.757Z,796
2019-05-22T04:56:28.865Z,936
2019-05-22T04:57:31.256Z,1104
2019-05-22T04:58:33.619Z,900
2019-05-22T04:59:35.769Z,892
2019-05-22T05:00:38.809Z,892
2019-05-22T05:01:41.908Z,1116
2019-05-22T05:02:44.416Z,924
2019-05-22T05:03:46.871Z,888
2019-05-22T05:04:49.334Z,1116
2019-05-22T05:05:51.410Z,932
2019-05-22T05:06:54.131Z,928
2019-05-22T05:07:56.604Z,1060
2019-05-22T05:08:58.971Z,1164
2019-05-22T05:10:01.009Z,1284
2019-05-22T05:11:03.801Z,1120
2019-05-22T05:12:06.653Z,984
2019-05-22T05:13:08.753Z,964
2019-05-22T05:14:11.125Z,984
2019-05-22T05:15:13.576Z,1264
2019-05-22T05:16:15.658Z,1296
2019-05-22T05:17:17.789Z,1220
2019-05-22T05:18:19.875Z,1280
2019-05-22T05:19:22.565Z,1152
2019-05-22T05:20:24.666Z,1104
2019-05-22T05:21:26.733Z,1360
2019-05-22T05:22:29.203Z,1520
2019-05-22T05:23:31.275Z,1704
2019-05-22T05:24:33.722Z,1696
2019-05-22T05:25:36.302Z,1616
2019-05-22T05:26:38.446Z,1704
2019-05-22T05:27:40.963Z,2032
2019-05-22T05:28:43.025Z,1820
2019-05-22T05:29:45.192Z,1904
2019-05-22T05:30:47.276Z,2136
2019-05-22T05:31:49.623Z,2436
2019-05-22T05:32:51.703Z,2276
2019-05-22T05:33:53.793Z,2116
2019-05-22T05:34:56.210Z,2108
2019-05-22T05:35:59.019Z,2824
2019-05-22T05:37:01.187Z,2108
2019-05-22T05:38:03.555Z,2376
2019-05-22T05:39:05.589Z,2356
2019-05-22T05:40:07.696Z,2568
2019-05-22T05:41:10.492Z,2896
2019-05-22T05:42:12.865Z,2796
2019-05-22T05:43:15.235Z,2668
2019-05-22T05:44:18.033Z,3632
2019-05-22T05:45:20.143Z,3312
2019-05-22T05:46:22.482Z,3024
2019-05-22T05:47:24.912Z,3108
2019-05-22T05:48:26.978Z,3404
2019-05-22T05:49:29.458Z,3108
2019-05-22T05:50:39.270Z,3288
2019-05-22T05:51:42.768Z,3052
2019-05-22T05:52:44.892Z,3232
2019-05-22T05:53:46.973Z,4004
2019-05-22T05:54:49.090Z,3592
2019-05-22T05:55:51.186Z,3520
2019-05-22T05:56:53.261Z,4092
2019-05-22T05:57:55.699Z,3704
2019-05-22T05:58:58.077Z,2760
2019-05-22T06:00:00.505Z,2944
2019-05-22T06:01:02.562Z,2880
2019-05-22T06:02:05.191Z,3072
2019-05-22T06:03:07.341Z,2528
2019-05-22T06:04:09.420Z,2540
2019-05-22T06:05:11.541Z,2216
2019-05-22T06:06:13.631Z,2144
2019-05-22T06:07:15.722Z,2364
2019-05-22T06:08:18.556Z,1980
2019-05-22T06:09:20.660Z,1784
2019-05-22T06:10:23.906Z,1928
2019-05-22T06:11:25.990Z,2172
2019-05-22T06:12:28.135Z,2348
2019-05-22T06:13:30.571Z,2948
2019-05-22T06:14:32.657Z,2548
2019-05-22T06:15:46.246Z,2616
2019-05-22T06:16:50.290Z,2812
2019-05-22T06:17:52.666Z,3284
2019-05-22T06:18:57.112Z,3092
2019-05-22T06:19:59.339Z,2592
2019-05-22T06:21:04.107Z,2592
2019-05-22T06:22:07.076Z,2488
2019-05-22T06:23:09.178Z,3144
2019-05-22T06:24:11.265Z,3508
2019-05-22T06:25:13.704Z,3488
2019-05-22T06:26:17.620Z,2896
2019-05-22T06:27:20.302Z,2812
2019-05-22T06:28:22.402Z,3144
2019-05-22T06:29:27.742Z,3532
2019-05-22T06:30:31.579Z,3792
2019-05-22T06:31:34.086Z,3956
2019-05-22T06:32:37.111Z,3288
2019-05-22T06:33:39.191Z,3524
2019-05-22T06:34:41.345Z,3360
2019-05-22T06:35:43.410Z,3520
2019-05-22T06:36:45.974Z,3512
2019-05-22T06:37:48.337Z,3352
2019-05-22T06:38:50.409Z,3488
2019-05-22T06:39:52.858Z,3096
2019-05-22T06:40:54.959Z,3044
2019-05-22T06:41:57.455Z,3132
2019-05-22T06:42:59.835Z,3132
2019-05-22T06:44:01.917Z,2996
2019-05-22T06:45:04.878Z,3268
2019-05-22T06:46:08.897Z,2648
2019-05-22T06:47:11.049Z,3236
2019-05-22T06:48:14.167Z,3084
2019-05-22T06:49:16.316Z,2372
2019-05-22T06:50:18.438Z,2792
2019-05-22T06:51:20.792Z,2616
2019-05-22T06:52:22.907Z,2724
2019-05-22T06:53:25.637Z,3164
2019-05-22T06:54:27.773Z,2876
2019-05-22T06:55:30.899Z,3120
2019-05-22T06:56:33.006Z,3200
2019-05-22T06:57:35.414Z,3196
2019-05-22T06:58:37.523Z,2784
2019-05-22T06:59:39.964Z,3252
2019-05-22T07:00:42.362Z,2820
2019-05-22T07:01:44.517Z,2732
2019-05-22T07:02:46.991Z,2880
2019-05-22T07:03:49.101Z,3512
2019-05-22T07:04:51.505Z,3284
2019-05-22T07:05:54.587Z,3928
2019-05-22T07:06:56.679Z,3820
2019-05-22T07:07:59.527Z,4404
2019-05-22T07:09:02.006Z,3936
2019-05-22T07:10:04.749Z,4404
2019-05-22T07:11:07.128Z,4820
2019-05-22T07:12:10.075Z,4580
2019-05-22T07:13:12.733Z,4956
2019-05-22T07:14:14.875Z,4676
2019-05-22T07:15:16.968Z,4664
2019-05-22T07:16:19.041Z,5064
2019-05-22T07:17:21.197Z,4484
2019-05-22T07:18:23.314Z,4288
2019-05-22T07:19:25.512Z,4004
2019-05-22T07:20:27.888Z,3916
2019-05-22T07:21:33.772Z,4448
2019-05-22T07:22:36.585Z,5164
2019-05-22T07:23:39.108Z,4996
2019-05-22T07:24:41.558Z,5680
2019-05-22T07:25:43.978Z,4844
2019-05-22T07:26:47.841Z,5716
2019-05-22T07:27:49.928Z,4940
2019-05-22T07:28:52.045Z,4912
2019-05-22T07:29:54.397Z,4752
2019-05-22T07:30:56.483Z,4696
2019-05-22T07:32:01.999Z,4716
2019-05-22T07:33:05.775Z,5048
2019-05-22T07:34:07.890Z,5012
2019-05-22T07:35:09.961Z,4728
2019-05-22T07:36:16.616Z,4916
2019-05-22T07:37:19.439Z,4432
2019-05-22T07:38:21.551Z,4648
2019-05-22T07:39:23.978Z,4252
2019-05-22T07:40:26.723Z,4332
2019-05-22T07:41:29.177Z,4392
2019-05-22T07:42:31.293Z,4548
2019-05-22T07:43:33.765Z,4876
2019-05-22T07:44:36.422Z,4544
2019-05-22T07:45:39.428Z,4916
2019-05-22T07:46:43.094Z,5216
2019-05-22T07:47:45.182Z,4892
2019-05-22T07:48:47.337Z,5084
2019-05-22T07:49:49.407Z,4684
2019-05-22T07:50:51.784Z,4664
2019-05-22T07:52:00.848Z,5412
2019-05-22T07:53:04.964Z,5268
2019-05-22T07:54:07.063Z,6220
2019-05-22T07:55:09.446Z,6672
2019-05-22T07:56:12.489Z,6740
2019-05-22T07:57:15.380Z,8016
2019-05-22T07:58:17.476Z,7168
2019-05-22T07:59:20.279Z,7144
2019-05-22T08:00:22.657Z,6832
2019-05-22T08:01:25.919Z,6064
2019-05-22T08:02:28.019Z,6112
2019-05-22T08:03:30.478Z,7056
2019-05-22T08:04:34.331Z,8072
2019-05-22T08:05:36.416Z,8800
2019-05-22T08:06:38.859Z,8148
2019-05-22T08:07:41.259Z,6592
2019-05-22T08:08:44.833Z,7304
2019-05-22T08:09:47.587Z,6156
2019-05-22T08:10:49.672Z,6840
2019-05-22T08:11:52.590Z,7400
2019-05-22T08:12:54.692Z,6904
2019-05-22T08:13:57.499Z,6120
2019-05-22T08:14:59.923Z,6164
2019-05-22T08:16:02.418Z,5548
2019-05-22T08:17:04.869Z,5932
2019-05-22T08:18:06.958Z,6180
2019-05-22T08:19:09.037Z,6056
2019-05-22T08:20:11.136Z,6440
2019-05-22T08:21:13.297Z,6588
2019-05-22T08:22:15.956Z,6476
2019-05-22T08:23:18.330Z,6836
2019-05-22T08:24:20.662Z,7024
2019-05-22T08:25:23.130Z,6972
2019-05-22T08:26:25.610Z,6984
2019-05-22T08:27:27.925Z,7148
2019-05-22T08:28:30.077Z,7596
2019-05-22T08:29:32.455Z,7648
2019-05-22T08:30:34.537Z,7380
2019-05-22T08:31:36.698Z,7692
2019-05-22T08:32:38.767Z,7816
2019-05-22T08:33:40.930Z,8916
2019-05-22T08:34:43.695Z,8208
2019-05-22T08:35:46.749Z,8264
2019-05-22T08:36:48.831Z,7780
2019-05-22T08:37:51.209Z,7264
2019-05-22T08:38:53.296Z,6728
2019-05-22T08:39:55.843Z,6820
2019-05-22T08:40:58.751Z,6956
2019-05-22T08:42:01.448Z,6596
2019-05-22T08:43:04.388Z,7804
2019-05-22T08:44:15.768Z,9620
2019-05-22T08:45:20.134Z,9692
2019-05-22T08:46:23.247Z,10960
2019-05-22T08:47:25.608Z,9420
2019-05-22T08:48:28.094Z,9728
2019-05-22T08:49:30.456Z,10048
2019-05-22T08:50:33.236Z,9884
2019-05-22T08:51:35.335Z,9676
2019-05-22T08:52:37.402Z,11284
2019-05-22T08:53:47.089Z,12072
2019-05-22T08:54:51.222Z,10548
2019-05-22T08:55:53.352Z,11232
2019-05-22T08:56:55.750Z,11984
2019-05-22T08:57:57.834Z,11876
2019-05-22T08:59:16.248Z,13588
2019-05-22T09:00:22.499Z,13724
2019-05-22T09:01:24.695Z,14444
2019-05-22T09:02:27.053Z,16272
2019-05-22T09:03:29.209Z,14896
2019-05-22T09:04:31.370Z,12340
2019-05-22T09:05:34.155Z,12276
2019-05-22T09:06:36.692Z,11772
2019-05-22T09:07:38.769Z,9932
2019-05-22T09:08:41.990Z,10240
2019-05-22T09:09:44.035Z,11504
2019-05-22T09:10:46.194Z,15524
2019-05-22T09:11:48.577Z,13044
2019-05-22T09:12:50.693Z,12536
2019-05-22T09:13:52.825Z,11660
2019-05-22T09:14:54.934Z,10624
2019-05-22T09:16:01.610Z,10292
2019-05-22T09:17:04.968Z,10588
2019-05-22T09:18:07.081Z,11588
2019-05-22T09:19:09.480Z,13148
2019-05-22T09:20:14.419Z,12208
2019-05-22T09:21:16.912Z,9876
2019-05-22T09:22:19.455Z,11276
2019-05-22T09:23:21.949Z,9284
2019-05-22T09:24:24.351Z,9496
2019-05-22T09:25:27.592Z,9552
2019-05-22T09:26:29.741Z,9360
2019-05-22T09:27:32.107Z,9000
2019-05-22T09:28:34.658Z,9844
2019-05-22T09:29:37.130Z,11268
2019-05-22T09:30:39.678Z,14352
2019-05-22T09:31:42.504Z,18944
2019-05-22T09:32:47.486Z,18156
2019-05-22T09:33:50.086Z,12388
2019-05-22T09:34:52.988Z,9512
2019-05-22T09:35:55.390Z,8020
2019-05-22T09:36:57.486Z,7924
2019-05-22T09:37:59.588Z,8572
2019-05-22T09:39:01.990Z,14464
2019-05-22T09:40:04.741Z,15584
2019-05-22T09:41:07.150Z,16560
2019-05-22T09:42:09.912Z,17204
2019-05-22T09:43:12.047Z,16564
2019-05-22T09:44:15.383Z,16884
2019-05-22T09:45:18.236Z,18528
2019-05-22T09:46:20.378Z,20672
2019-05-22T09:47:23.680Z,23648
2019-05-22T09:48:25.790Z,29152
2019-05-22T09:49:27.899Z,29504
2019-05-22T09:50:30.095Z,25696
2019-05-22T09:51:32.604Z,17456
2019-05-22T09:52:35.631Z,10840
2019-05-22T09:53:37.771Z,9188
2019-05-22T09:54:40.173Z,9092
2019-05-22T09:55:46.853Z,7196
2019-05-22T09:56:49.974Z,6372
2019-05-22T09:57:52.052Z,6264
2019-05-22T09:58:54.824Z,6932
2019-05-22T09:59:56.920Z,7072
2019-05-22T10:00:59.313Z,6792
2019-05-22T10:02:01.707Z,6916
2019-05-22T10:03:04.823Z,7996
2019-05-22T10:04:06.904Z,8184
2019-05-22T10:05:09.009Z,7568
2019-05-22T10:06:11.885Z,7404
2019-05-22T10:07:14.322Z,8428
2019-05-22T10:08:16.492Z,7940
2019-05-22T10:09:18.599Z,7780
2019-05-22T10:10:20.722Z,7788
2019-05-22T10:11:24.378Z,7516
2019-05-22T10:12:27.531Z,7584
2019-05-22T10:13:29.744Z,7140
2019-05-22T10:14:33.139Z,10016
2019-05-22T10:15:35.271Z,7996
2019-05-22T10:16:37.713Z,8876
2019-05-22T10:17:40.171Z,8484
2019-05-22T10:18:42.643Z,7544
2019-05-22T10:19:44.747Z,9156
2019-05-22T10:20:47.203Z,8900
2019-05-22T10:21:49.287Z,7692
2019-05-22T10:22:52.020Z,7112
2019-05-22T10:23:54.387Z,6620
2019-05-22T10:25:13.698Z,7020
2019-05-22T10:26:19.256Z,6100
2019-05-22T10:27:21.792Z,6716
2019-05-22T10:28:24.243Z,8028
2019-05-22T10:29:26.822Z,9376
2019-05-22T10:30:33.847Z,8944
2019-05-22T10:31:36.254Z,7628
2019-05-22T10:32:38.392Z,9156
2019-05-22T10:33:40.834Z,8176
2019-05-22T10:34:43.887Z,7828
2019-05-22T10:35:46.319Z,9856
2019-05-22T10:36:48.392Z,8872
2019-05-22T10:37:50.934Z,13388
2019-05-22T10:38:53.024Z,12692
2019-05-22T10:39:55.441Z,15040
2019-05-22T10:40:59.122Z,12928
2019-05-22T10:42:02.859Z,12136
2019-05-22T10:43:05.399Z,13060
2019-05-22T10:44:08.223Z,13396
2019-05-22T10:45:10.746Z,13756
2019-05-22T10:46:12.940Z,14640
2019-05-22T10:47:18.721Z,12984
2019-05-22T10:48:21.360Z,14624
2019-05-22T10:49:24.030Z,13380
2019-05-22T10:50:26.261Z,13964
2019-05-22T10:51:29.308Z,11404
2019-05-22T10:52:31.526Z,10528
2019-05-22T10:53:34.441Z,8968
2019-05-22T10:54:36.640Z,9700
2019-05-22T10:55:38.810Z,9532
2019-05-22T10:56:41.274Z,10284
2019-05-22T10:57:44.453Z,11224
2019-05-22T10:58:47.618Z,11208
2019-05-22T10:59:49.752Z,9828
2019-05-22T11:00:52.456Z,9900
2019-05-22T11:01:54.827Z,9308
2019-05-22T11:02:57.467Z,10144
2019-05-22T11:04:00.158Z,10052
2019-05-22T11:05:02.961Z,10336
2019-05-22T11:06:07.390Z,10244
2019-05-22T11:07:11.528Z,10512
2019-05-22T11:08:13.621Z,10008
2019-05-22T11:09:16.027Z,8724
2019-05-22T11:10:18.179Z,8548
2019-05-22T11:11:20.252Z,10468
2019-05-22T11:12:22.802Z,12332
2019-05-22T11:13:25.612Z,11360
2019-05-22T11:14:27.700Z,9932
2019-05-22T11:15:29.833Z,10744
2019-05-22T11:16:32.456Z,10608
2019-05-22T11:17:35.647Z,10516
2019-05-22T11:18:37.765Z,10600
2019-05-22T11:19:39.936Z,9848
2019-05-22T11:20:42.025Z,10024
2019-05-22T11:21:44.120Z,10176
2019-05-22T11:22:46.279Z,10052
2019-05-22T11:23:52.337Z,10832
2019-05-22T11:24:55.450Z,9800
2019-05-22T11:25:57.537Z,9832
2019-05-22T11:26:59.996Z,9500
2019-05-22T11:28:02.313Z,9348
2019-05-22T11:29:04.868Z,9240
2019-05-22T11:30:07.285Z,8572
2019-05-22T11:31:09.689Z,8440
2019-05-22T11:32:11.829Z,8636
2019-05-22T11:33:14.501Z,8692
2019-05-22T11:34:16.821Z,9568
2019-05-22T11:35:19.527Z,10052
2019-05-22T11:36:22.697Z,10592
2019-05-22T11:37:25.092Z,12460
2019-05-22T11:38:27.130Z,11216
2019-05-22T11:39:39.107Z,10196
2019-05-22T11:40:46.919Z,11056
2019-05-22T11:41:49.015Z,10356
2019-05-22T11:42:51.587Z,10564
2019-05-22T11:43:54.368Z,9944
2019-05-22T11:44:57.163Z,9292
2019-05-22T11:45:59.245Z,9516
2019-05-22T11:47:01.483Z,9156
2019-05-22T11:48:03.708Z,9012
2019-05-22T11:49:07.229Z,9136
2019-05-22T11:50:09.385Z,9028
2019-05-22T11:51:11.764Z,9540
2019-05-22T11:52:13.897Z,9588
2019-05-22T11:53:16.012Z,9980
2019-05-22T11:54:18.788Z,10424
2019-05-22T11:55:20.882Z,9768
2019-05-22T11:56:23.343Z,7764
2019-05-22T11:57:25.455Z,11196
2019-05-22T11:58:27.537Z,12120
2019-05-22T11:59:30.336Z,10736
2019-05-22T12:00:32.711Z,10192
2019-05-22T12:01:35.095Z,9216
2019-05-22T12:02:37.145Z,9548
2019-05-22T12:03:39.211Z,9248
2019-05-22T12:04:47.636Z,9128
2019-05-22T12:05:51.399Z,8716
2019-05-22T12:06:54.121Z,8744
2019-05-22T12:07:56.243Z,8668
2019-05-22T12:08:58.331Z,8396
2019-05-22T12:10:00.765Z,7780
2019-05-22T12:11:03.198Z,8336
2019-05-22T12:12:06.880Z,8300
2019-05-22T12:13:08.943Z,8824
2019-05-22T12:14:11.438Z,8084
2019-05-22T12:15:14.660Z,7960
2019-05-22T12:16:17.096Z,7288
2019-05-22T12:17:36.551Z,7696
2019-05-22T12:18:40.918Z,12520
2019-05-22T12:19:43.061Z,14676
2019-05-22T12:20:45.461Z,14480
2019-05-22T12:21:47.857Z,12104
2019-05-22T12:22:49.955Z,14556
2019-05-22T12:23:52.073Z,14864
2019-05-22T12:24:54.237Z,13704
2019-05-22T12:25:56.320Z,15004
2019-05-22T12:26:58.447Z,12992
2019-05-22T12:28:00.560Z,11692
2019-05-22T12:29:03.039Z,10568
2019-05-22T12:30:05.123Z,9220
2019-05-22T12:31:07.898Z,8620
2019-05-22T12:32:10.126Z,8540
2019-05-22T12:33:14.053Z,8212
2019-05-22T12:34:17.472Z,7652
2019-05-22T12:35:20.396Z,7064
2019-05-22T12:36:22.766Z,9200
2019-05-22T12:37:25.163Z,15608
2019-05-22T12:38:27.687Z,22048
2019-05-22T12:39:29.840Z,28928
2019-05-22T12:40:32.575Z,20608
2019-05-22T12:41:34.677Z,17644
2019-05-22T12:42:37.158Z,12592
2019-05-22T12:43:39.957Z,10788
2019-05-22T12:44:46.958Z,9776
2019-05-22T12:45:49.328Z,8876
2019-05-22T12:46:51.481Z,8544
2019-05-22T12:47:53.878Z,8300
2019-05-22T12:48:56.363Z,7964
2019-05-22T12:49:58.795Z,7832
2019-05-22T12:51:01.701Z,7584
2019-05-22T12:52:04.129Z,7880
2019-05-22T12:53:07.429Z,9296
2019-05-22T12:54:09.917Z,9800
2019-05-22T12:55:12.002Z,8708
2019-05-22T12:56:14.106Z,8456
2019-05-22T12:57:16.237Z,8368
2019-05-22T12:58:18.335Z,8504
2019-05-22T12:59:20.898Z,8276
2019-05-22T13:00:22.971Z,8604
2019-05-22T13:01:25.442Z,9452
2019-05-22T13:02:27.497Z,10148
2019-05-22T13:03:29.590Z,11260
2019-05-22T13:04:31.721Z,11680
2019-05-22T13:05:33.851Z,11364
2019-05-22T13:06:36.320Z,11788
2019-05-22T13:07:38.695Z,12616
2019-05-22T13:08:41.463Z,11692
2019-05-22T13:09:43.577Z,12496
2019-05-22T13:10:46.119Z,13652
2019-05-22T13:11:48.273Z,11660
2019-05-22T13:12:50.670Z,12796
2019-05-22T13:13:54.549Z,15520
2019-05-22T13:15:08.722Z,15636
2019-05-22T13:16:13.377Z,16424
2019-05-22T13:17:15.469Z,18816
2019-05-22T13:18:17.581Z,18240
2019-05-22T13:19:19.704Z,16492
2019-05-22T13:20:38.964Z,14704
2019-05-22T13:21:47.085Z,12012
2019-05-22T13:22:49.177Z,10740
2019-05-22T13:23:52.628Z,11520
2019-05-22T13:24:55.574Z,12936
2019-05-22T13:25:57.659Z,12172
2019-05-22T13:27:00.204Z,13700
2019-05-22T13:28:02.317Z,12744
2019-05-22T13:29:05.339Z,12504
2019-05-22T13:30:07.470Z,13192
2019-05-22T13:31:10.124Z,18496
2019-05-22T13:32:12.587Z,25376
2019-05-22T13:33:15.462Z,25600
2019-05-22T13:34:17.589Z,26656
2019-05-22T13:35:19.709Z,24512
2019-05-22T13:36:22.187Z,18720
2019-05-22T13:37:24.615Z,14224
2019-05-22T13:38:27.150Z,13284
2019-05-22T13:39:29.648Z,12660
2019-05-22T13:40:32.032Z,12524
2019-05-22T13:41:34.175Z,12592
2019-05-22T13:42:36.523Z,15820
2019-05-22T13:43:38.588Z,14996
2019-05-22T13:44:41.083Z,12752
2019-05-22T13:45:43.465Z,11140
2019-05-22T13:46:45.625Z,11136
2019-05-22T13:47:47.699Z,9784
2019-05-22T13:48:50.741Z,9180
2019-05-22T13:49:53.537Z,9668
2019-05-22T13:50:56.263Z,11232
2019-05-22T13:51:58.906Z,14812
2019-05-22T13:53:03.338Z,13876
2019-05-22T13:54:05.811Z,14000
2019-05-22T13:55:07.925Z,15036
2019-05-22T13:56:10.658Z,22144
2019-05-22T13:57:14.095Z,29376
2019-05-22T13:58:16.778Z,85152
2019-05-22T13:59:19.504Z,108000
2019-05-22T14:00:21.628Z,60128
2019-05-22T14:01:23.725Z,65952
2019-05-22T14:02:27.221Z,92608
2019-05-22T14:03:29.720Z,74208
2019-05-22T14:04:32.451Z,48992
2019-05-22T14:05:34.966Z,38400
2019-05-22T14:06:37.108Z,33120
2019-05-22T14:07:39.226Z,38560
2019-05-22T14:08:42.213Z,31392
2019-05-22T14:09:44.979Z,28064
2019-05-22T14:10:49.724Z,23936
2019-05-22T14:11:52.766Z,17824